createdAt,value
2022-09-26T00:00:23.781Z,8.47
2022-09-26T00:01:23.287Z,8.42
2022-09-26T00:02:23.332Z,8.39
2022-09-26T00:03:23.139Z,8.34
2022-09-26T00:04:24.629Z,8.35
2022-09-26T00:05:23.129Z,8.31
2022-09-26T00:06:23.114Z,8.23
2022-09-26T00:07:23.181Z,8.14
2022-09-26T00:08:23.148Z,8.04
2022-09-26T00:09:23.089Z,8.02
2022-09-26T00:10:23.081Z,8.04
2022-09-26T00:11:23.088Z,8.06
2022-09-26T00:12:23.068Z,7.96
2022-09-26T00:13:23.062Z,7.84
2022-09-26T00:14:23.031Z,7.77
2022-09-26T00:15:23.026Z,7.83
2022-09-26T00:16:23.164Z,7.81
2022-09-26T00:17:23.081Z,7.78
2022-09-26T00:18:23.003Z,7.86
2022-09-26T00:19:23.039Z,7.77
2022-09-26T00:20:22.998Z,7.86
2022-09-26T00:21:22.984Z,7.87
2022-09-26T00:22:22.974Z,7.81
2022-09-26T00:23:22.953Z,7.94
2022-09-26T00:24:22.952Z,7.81
2022-09-26T00:25:22.953Z,7.88
2022-09-26T00:26:22.942Z,7.91
2022-09-26T00:27:22.964Z,7.95
2022-09-26T00:28:22.918Z,7.95
2022-09-26T00:29:22.907Z,7.92
2022-09-26T00:30:22.957Z,7.92
2022-09-26T00:31:23.024Z,7.92
2022-09-26T00:32:22.880Z,7.76
2022-09-26T00:33:22.900Z,7.91
2022-09-26T00:34:22.863Z,7.80
2022-09-26T00:35:22.856Z,7.87
2022-09-26T00:36:29.763Z,7.84
2022-09-26T00:37:23.843Z,7.84
2022-09-26T00:38:22.828Z,7.77
2022-09-26T00:39:22.819Z,7.86
2022-09-26T00:40:22.830Z,7.73
2022-09-26T00:41:22.799Z,7.76
2022-09-26T00:42:22.822Z,7.80
2022-09-26T00:43:22.800Z,7.78
2022-09-26T00:44:22.780Z,7.76
2022-09-26T00:45:22.771Z,7.61
2022-09-26T00:46:22.814Z,7.54
2022-09-26T00:47:22.852Z,7.47
2022-09-26T00:48:22.769Z,7.52
2022-09-26T00:49:22.735Z,7.49
2022-09-26T00:50:22.723Z,7.46
2022-09-26T00:51:22.712Z,7.40
2022-09-26T00:52:22.716Z,7.47
2022-09-26T00:53:22.718Z,7.40
2022-09-26T00:54:22.764Z,7.36
2022-09-26T00:55:22.676Z,7.37
2022-09-26T00:56:22.673Z,7.22
2022-09-26T00:57:22.661Z,7.13
2022-09-26T00:58:22.663Z,7.15
2022-09-26T00:59:22.667Z,7.22
2022-09-26T01:00:22.665Z,7.19
2022-09-26T01:01:22.730Z,7.08
2022-09-26T01:02:22.716Z,7.08
2022-09-26T01:03:22.611Z,7.07
2022-09-26T01:04:22.628Z,7.04
2022-09-26T01:05:22.601Z,7.07
2022-09-26T01:06:22.615Z,7.04
2022-09-26T01:07:22.573Z,7.07
2022-09-26T01:08:22.559Z,7.03
2022-09-26T01:09:22.559Z,7.00
2022-09-26T01:10:22.537Z,7.03
2022-09-26T01:11:22.567Z,7.06
2022-09-26T01:12:22.523Z,6.99
2022-09-26T01:13:22.520Z,7.00
2022-09-26T01:14:22.509Z,7.04
2022-09-26T01:15:22.510Z,6.99
2022-09-26T01:16:22.575Z,7.03
2022-09-26T01:17:22.514Z,7.06
2022-09-26T01:18:22.507Z,7.00
2022-09-26T01:19:22.492Z,6.96
2022-09-26T01:20:22.465Z,7.00
2022-09-26T01:21:22.456Z,6.96
2022-09-26T01:22:22.444Z,6.82
2022-09-26T01:23:22.462Z,6.92
2022-09-26T01:24:22.424Z,6.86
2022-09-26T01:25:22.416Z,6.78
2022-09-26T01:26:22.407Z,6.81
2022-09-26T01:27:22.404Z,6.89
2022-09-26T01:28:22.395Z,6.79
2022-09-26T01:29:22.857Z,6.89
2022-09-26T01:30:22.384Z,6.96
2022-09-26T01:31:22.444Z,6.89
2022-09-26T01:32:22.378Z,6.92
2022-09-26T01:33:22.346Z,6.81
2022-09-26T01:34:22.331Z,6.86
2022-09-26T01:35:22.348Z,6.93
2022-09-26T01:36:22.314Z,6.93
2022-09-26T01:37:22.326Z,6.93
2022-09-26T01:38:22.381Z,6.93
2022-09-26T01:39:22.293Z,6.92
2022-09-26T01:40:22.411Z,6.97
2022-09-26T01:41:22.297Z,7.06
2022-09-26T01:42:22.278Z,6.97
2022-09-26T01:43:22.308Z,6.92
2022-09-26T01:44:22.253Z,6.92
2022-09-26T01:45:22.260Z,6.97
2022-09-26T01:46:22.293Z,7.07
2022-09-26T01:47:22.253Z,6.89
2022-09-26T01:48:22.209Z,6.97
2022-09-26T01:49:22.213Z,7.03
2022-09-26T01:50:22.294Z,6.86
2022-09-26T01:51:22.184Z,6.86
2022-09-26T01:52:22.210Z,7.07
2022-09-26T01:53:22.183Z,7.03
2022-09-26T01:54:22.181Z,6.88
2022-09-26T01:55:22.160Z,6.91
2022-09-26T01:56:22.139Z,6.88
2022-09-26T01:57:22.167Z,6.82
2022-09-26T01:58:22.129Z,6.81
2022-09-26T01:59:22.120Z,6.82
2022-09-26T02:00:22.146Z,6.78
2022-09-26T02:01:22.189Z,6.67
2022-09-26T02:02:22.215Z,6.71
2022-09-26T02:03:22.089Z,6.68
2022-09-26T02:04:22.096Z,6.73
2022-09-26T02:05:22.096Z,6.73
2022-09-26T02:06:22.079Z,6.73
2022-09-26T02:07:22.067Z,6.79
2022-09-26T02:08:22.045Z,6.83
2022-09-26T02:09:22.040Z,6.74
2022-09-26T02:10:22.032Z,6.83
2022-09-26T02:11:22.046Z,6.82
2022-09-26T02:12:22.032Z,6.86
2022-09-26T02:13:22.014Z,6.86
2022-09-26T02:14:22.005Z,6.82
2022-09-26T02:15:21.993Z,6.82
2022-09-26T02:16:22.076Z,6.79
2022-09-26T02:17:21.983Z,6.81
2022-09-26T02:18:21.959Z,6.79
2022-09-26T02:19:21.954Z,6.75
2022-09-26T02:20:21.933Z,6.82
2022-09-26T02:21:21.925Z,6.78
2022-09-26T02:22:21.955Z,6.78
2022-09-26T02:23:21.905Z,6.81
2022-09-26T02:24:21.898Z,6.70
2022-09-26T02:25:21.887Z,6.73
2022-09-26T02:26:21.875Z,6.67
2022-09-26T02:27:21.883Z,6.70
2022-09-26T02:28:21.912Z,6.67
2022-09-26T02:29:21.868Z,6.71
2022-09-26T02:30:21.859Z,6.64
2022-09-26T02:31:21.890Z,6.61
2022-09-26T02:32:21.822Z,6.63
2022-09-26T02:33:21.840Z,6.61
2022-09-26T02:34:21.843Z,6.61
2022-09-26T02:35:21.810Z,6.65
2022-09-26T02:36:21.816Z,6.60
2022-09-26T02:37:21.807Z,6.61
2022-09-26T02:38:21.813Z,6.64
2022-09-26T02:39:21.828Z,6.49
2022-09-26T02:40:21.809Z,6.55
2022-09-26T02:41:21.762Z,6.55
2022-09-26T02:42:21.750Z,6.65
2022-09-26T02:43:21.731Z,6.64
2022-09-26T02:44:21.743Z,6.70
2022-09-26T02:45:21.750Z,6.65
2022-09-26T02:46:21.789Z,6.67
2022-09-26T02:47:21.696Z,6.67
2022-09-26T02:48:21.725Z,6.70
2022-09-26T02:49:21.678Z,6.65
2022-09-26T02:50:21.695Z,6.68
2022-09-26T02:51:22.337Z,6.74
2022-09-26T02:52:21.754Z,6.71
2022-09-26T02:53:21.647Z,6.60
2022-09-26T02:54:21.655Z,6.56
2022-09-26T02:55:21.649Z,6.60
2022-09-26T02:56:21.651Z,6.65
2022-09-26T02:57:21.623Z,6.63
2022-09-26T02:58:21.610Z,6.65
2022-09-26T02:59:21.604Z,6.67
2022-09-26T03:00:21.594Z,6.60
2022-09-26T03:01:21.655Z,6.61
2022-09-26T03:02:21.594Z,6.56
2022-09-26T03:03:21.674Z,6.60
2022-09-26T03:04:21.620Z,6.49
2022-09-26T03:05:21.559Z,6.53
2022-09-26T03:06:21.562Z,6.60
2022-09-26T03:07:21.538Z,6.53
2022-09-26T03:08:21.550Z,6.56
2022-09-26T03:09:21.524Z,6.53
2022-09-26T03:10:21.515Z,6.56
2022-09-26T03:11:21.510Z,6.60
2022-09-26T03:12:21.504Z,6.63
2022-09-26T03:13:21.504Z,6.71
2022-09-26T03:14:21.573Z,6.65
2022-09-26T03:15:21.465Z,6.68
2022-09-26T03:16:21.517Z,6.67
2022-09-26T03:17:21.452Z,6.73
2022-09-26T03:18:21.445Z,6.65
2022-09-26T03:19:21.445Z,6.74
2022-09-26T03:20:21.451Z,6.67
2022-09-26T03:21:21.428Z,6.70
2022-09-26T03:22:21.425Z,6.65
2022-09-26T03:23:21.423Z,6.52
2022-09-26T03:24:21.401Z,6.53
2022-09-26T03:25:21.398Z,6.55
2022-09-26T03:26:21.854Z,6.60
2022-09-26T03:27:21.384Z,6.57
2022-09-26T03:28:21.369Z,6.57
2022-09-26T03:29:21.353Z,6.67
2022-09-26T03:30:21.355Z,6.70
2022-09-26T03:31:21.410Z,6.61
2022-09-26T03:32:21.325Z,6.53
2022-09-26T03:33:21.329Z,6.46
2022-09-26T03:34:21.321Z,6.49
2022-09-26T03:35:21.311Z,6.46
2022-09-26T03:36:21.311Z,6.47
2022-09-26T03:37:21.357Z,6.46
2022-09-26T03:38:21.317Z,6.47
2022-09-26T03:39:21.284Z,6.53
2022-09-26T03:40:21.305Z,6.50
2022-09-26T03:41:21.255Z,6.57
2022-09-26T03:42:21.246Z,6.47
2022-09-26T03:43:21.261Z,6.56
2022-09-26T03:44:21.229Z,6.49
2022-09-26T03:45:21.293Z,6.56
2022-09-26T03:46:21.223Z,6.61
2022-09-26T03:47:21.219Z,6.57
2022-09-26T03:48:21.201Z,6.55
2022-09-26T03:49:21.216Z,6.60
2022-09-26T03:50:21.187Z,6.57
2022-09-26T03:51:21.183Z,6.61
2022-09-26T03:52:21.173Z,6.68
2022-09-26T03:53:21.159Z,6.60
2022-09-26T03:54:21.144Z,6.57
2022-09-26T03:55:21.152Z,6.55
2022-09-26T03:56:21.128Z,6.64
2022-09-26T03:57:21.124Z,6.56
2022-09-26T03:58:21.129Z,6.55
2022-09-26T03:59:21.108Z,6.63
2022-09-26T04:00:21.099Z,6.46
2022-09-26T04:01:21.222Z,6.52
2022-09-26T04:02:21.206Z,6.45
2022-09-26T04:03:21.083Z,6.38
2022-09-26T04:04:21.072Z,6.28
2022-09-26T04:05:21.063Z,6.32
2022-09-26T04:06:21.218Z,6.28
2022-09-26T04:07:21.067Z,6.25
2022-09-26T04:08:21.042Z,6.37
2022-09-26T04:09:21.250Z,6.35
2022-09-26T04:10:21.028Z,6.34
2022-09-26T04:11:21.004Z,6.28
2022-09-26T04:12:21.000Z,6.25
2022-09-26T04:13:49.450Z,6.28
2022-09-26T04:14:21.976Z,6.18
2022-09-26T04:15:20.977Z,6.30
2022-09-26T04:16:21.050Z,6.30
2022-09-26T04:17:21.241Z,6.35
2022-09-26T04:18:20.954Z,6.27
2022-09-26T04:19:20.985Z,6.32
2022-09-26T04:20:20.950Z,6.35
2022-09-26T04:21:20.944Z,6.52
2022-09-26T04:22:20.961Z,6.49
2022-09-26T04:23:20.919Z,6.38
2022-09-26T04:24:20.914Z,6.52
2022-09-26T04:25:20.924Z,6.53
2022-09-26T04:26:23.724Z,6.61
2022-09-26T04:27:20.878Z,6.49
2022-09-26T04:28:20.869Z,6.53
2022-09-26T04:29:20.859Z,6.56
2022-09-26T04:30:20.860Z,6.55
2022-09-26T04:31:20.950Z,6.52
2022-09-26T04:32:20.876Z,6.49
2022-09-26T04:33:20.847Z,6.56
2022-09-26T04:34:26.258Z,6.61
2022-09-26T04:35:21.825Z,6.60
2022-09-26T04:36:20.819Z,6.56
2022-09-26T04:37:20.832Z,6.50
2022-09-26T04:38:21.337Z,6.64
2022-09-26T04:39:20.779Z,6.65
2022-09-26T04:40:20.839Z,6.61
2022-09-26T04:41:20.766Z,6.73
2022-09-26T04:42:20.764Z,6.79
2022-09-26T04:43:20.812Z,6.74
2022-09-26T04:44:20.786Z,6.78
2022-09-26T04:45:20.737Z,6.74
2022-09-26T04:46:22.343Z,6.78
2022-09-26T04:47:20.715Z,6.71
2022-09-26T04:48:20.706Z,6.74
2022-09-26T04:49:20.721Z,6.78
2022-09-26T04:50:20.730Z,6.75
2022-09-26T04:51:20.681Z,6.81
2022-09-26T04:52:20.682Z,6.74
2022-09-26T04:53:20.671Z,6.79
2022-09-26T04:54:20.704Z,6.83
2022-09-26T04:55:20.695Z,6.82
2022-09-26T04:56:20.633Z,6.79
2022-09-26T04:57:20.637Z,6.71
2022-09-26T04:58:20.622Z,6.78
2022-09-26T04:59:20.609Z,6.79
2022-09-26T05:00:20.626Z,6.73
2022-09-26T05:01:20.674Z,6.79
2022-09-26T05:02:20.641Z,6.82
2022-09-26T05:03:20.580Z,6.81
2022-09-26T05:04:25.214Z,6.71
2022-09-26T05:05:21.591Z,6.83
2022-09-26T05:06:20.571Z,6.78
2022-09-26T05:07:20.555Z,6.97
2022-09-26T05:08:20.530Z,6.79
2022-09-26T05:09:20.528Z,6.85
2022-09-26T05:10:20.524Z,6.71
2022-09-26T05:11:20.520Z,6.82
2022-09-26T05:12:20.729Z,6.96
2022-09-26T05:13:20.491Z,6.89
2022-09-26T05:14:20.484Z,6.86
2022-09-26T05:15:20.480Z,6.93
2022-09-26T05:16:20.518Z,6.97
2022-09-26T05:17:20.500Z,6.93
2022-09-26T05:18:20.483Z,6.89
2022-09-26T05:20:32.696Z,6.85
2022-09-26T05:21:32.734Z,7.00
2022-09-26T05:22:32.702Z,6.91
2022-09-26T05:23:32.700Z,6.97
2022-09-26T05:24:32.683Z,6.88
2022-09-26T05:25:32.750Z,6.88
2022-09-26T05:26:32.684Z,7.04
2022-09-26T05:27:32.693Z,6.89
2022-09-26T05:28:32.677Z,7.00
2022-09-26T05:29:32.651Z,7.01
2022-09-26T05:30:32.660Z,7.04
2022-09-26T05:31:32.795Z,7.11
2022-09-26T05:32:32.667Z,7.00
2022-09-26T05:33:32.686Z,6.99
2022-09-26T05:34:32.623Z,7.11
2022-09-26T05:35:32.605Z,7.16
2022-09-26T05:36:32.604Z,7.11
2022-09-26T05:37:32.593Z,7.11
2022-09-26T05:38:32.671Z,7.21
2022-09-26T05:39:32.611Z,7.13
2022-09-26T05:40:32.626Z,7.22
2022-09-26T05:41:32.567Z,7.21
2022-09-26T05:42:32.595Z,7.21
2022-09-26T05:43:32.563Z,7.28
2022-09-26T05:44:32.557Z,7.25
2022-09-26T05:45:32.524Z,7.26
2022-09-26T05:46:32.614Z,7.46
2022-09-26T05:47:32.539Z,7.39
2022-09-26T05:48:32.507Z,7.55
2022-09-26T05:49:32.480Z,7.50
2022-09-26T05:50:32.531Z,7.54
2022-09-26T05:51:32.470Z,7.61
2022-09-26T05:52:32.468Z,7.57
2022-09-26T05:53:32.477Z,7.55
2022-09-26T05:54:32.458Z,7.76
2022-09-26T05:55:32.459Z,7.62
2022-09-26T05:56:32.486Z,7.80
2022-09-26T05:57:32.448Z,7.77
2022-09-26T05:58:32.489Z,7.96
2022-09-26T05:59:33.060Z,7.92
2022-09-26T06:00:32.435Z,7.87
2022-09-26T06:01:32.444Z,7.92
2022-09-26T06:02:32.474Z,8.13
2022-09-26T06:03:32.380Z,8.16
2022-09-26T06:04:32.396Z,8.06
2022-09-26T06:05:32.360Z,8.10
2022-09-26T06:06:32.392Z,7.99
2022-09-26T06:07:32.380Z,8.10
2022-09-26T06:08:32.357Z,8.19
2022-09-26T06:09:32.340Z,8.32
2022-09-26T06:10:32.377Z,8.31
2022-09-26T06:11:32.351Z,8.28
2022-09-26T06:12:32.502Z,8.34
2022-09-26T06:13:32.323Z,8.38
2022-09-26T06:14:32.294Z,8.46
2022-09-26T06:15:32.282Z,8.42
2022-09-26T06:16:32.342Z,8.50
2022-09-26T06:17:32.290Z,8.47
2022-09-26T06:18:32.279Z,8.68
2022-09-26T06:19:32.245Z,8.57
2022-09-26T06:20:32.245Z,8.60
2022-09-26T06:21:32.235Z,8.60
2022-09-26T06:22:32.361Z,8.65
2022-09-26T06:23:32.223Z,8.77
2022-09-26T06:24:32.289Z,8.75
2022-09-26T06:25:32.203Z,8.71
2022-09-26T06:26:32.231Z,8.72
2022-09-26T06:27:33.101Z,8.80
2022-09-26T06:28:32.175Z,8.89
2022-09-26T06:29:32.163Z,8.83
2022-09-26T06:30:32.186Z,8.81
2022-09-26T06:31:32.195Z,8.77
2022-09-26T06:32:32.142Z,8.78
2022-09-26T06:33:33.511Z,8.75
2022-09-26T06:34:32.155Z,8.80
2022-09-26T06:35:32.118Z,8.85
2022-09-26T06:36:32.160Z,8.78
2022-09-26T06:37:32.150Z,8.85
2022-09-26T06:38:32.120Z,8.81
2022-09-26T06:39:32.081Z,8.96
2022-09-26T06:40:32.159Z,8.93
2022-09-26T06:41:32.200Z,8.89
2022-09-26T06:42:32.071Z,8.86
2022-09-26T06:43:32.057Z,8.88
2022-09-26T06:44:32.040Z,8.92
2022-09-26T06:45:32.042Z,8.96
2022-09-26T06:46:32.092Z,8.93
2022-09-26T06:47:32.052Z,9.01
2022-09-26T06:48:32.160Z,9.03
2022-09-26T06:49:32.003Z,9.04
2022-09-26T06:50:31.993Z,9.08
2022-09-26T06:51:32.007Z,9.12
2022-09-26T06:52:31.979Z,9.15
2022-09-26T06:53:31.991Z,9.19
2022-09-26T06:54:31.989Z,9.19
2022-09-26T06:55:31.957Z,9.12
2022-09-26T06:56:31.976Z,9.23
2022-09-26T06:57:32.008Z,9.26
2022-09-26T06:58:31.951Z,9.24
2022-09-26T06:59:31.933Z,9.16
2022-09-26T07:00:31.982Z,9.16
2022-09-26T07:01:32.011Z,9.33
2022-09-26T07:02:31.899Z,9.33
2022-09-26T07:03:31.881Z,9.23
2022-09-26T07:04:31.898Z,9.29
2022-09-26T07:05:31.859Z,9.36
2022-09-26T07:06:31.857Z,9.48
2022-09-26T07:07:31.847Z,9.37
2022-09-26T07:09:00.526Z,9.45
2022-09-26T07:09:32.906Z,9.51
2022-09-26T07:10:31.832Z,9.40
2022-09-26T07:11:41.964Z,9.55
2022-09-26T07:12:32.814Z,9.51
2022-09-26T07:13:31.802Z,9.48
2022-09-26T07:14:31.788Z,9.54
2022-09-26T07:15:31.823Z,9.54
2022-09-26T07:16:32.033Z,9.62
2022-09-26T07:17:31.764Z,9.70
2022-09-26T07:18:31.751Z,9.75
2022-09-26T07:19:31.749Z,9.72
2022-09-26T07:20:31.741Z,9.66
2022-09-26T07:21:31.751Z,9.65
2022-09-26T07:22:31.731Z,9.67
2022-09-26T07:23:31.753Z,9.62
2022-09-26T07:24:31.709Z,9.63
2022-09-26T07:25:31.846Z,9.80
2022-09-26T07:26:31.695Z,9.87
2022-09-26T07:27:31.704Z,9.88
2022-09-26T07:28:31.687Z,9.94
2022-09-26T07:29:31.735Z,9.93
2022-09-26T07:30:31.774Z,10.17
2022-09-26T07:31:31.710Z,10.38
2022-09-26T07:32:31.646Z,10.61
2022-09-26T07:33:31.636Z,10.75
2022-09-26T07:34:31.630Z,11.05
2022-09-26T07:35:31.618Z,11.05
2022-09-26T07:36:31.622Z,11.12
2022-09-26T07:37:31.609Z,10.97
2022-09-26T07:38:31.587Z,10.98
2022-09-26T07:39:31.584Z,11.11
2022-09-26T07:40:31.645Z,11.19
2022-09-26T07:41:31.560Z,11.25
2022-09-26T07:42:31.657Z,11.69
2022-09-26T07:44:04.620Z,12.30
2022-09-26T07:45:32.702Z,11.96
2022-09-26T07:46:31.664Z,12.55
2022-09-26T07:47:31.512Z,12.90
2022-09-26T07:48:31.503Z,13.13
2022-09-26T07:49:31.565Z,14.12
2022-09-26T07:50:31.499Z,14.19
2022-09-26T07:51:31.499Z,14.38
2022-09-26T07:52:31.501Z,14.46
2022-09-26T07:53:31.471Z,14.64
2022-09-26T07:54:32.973Z,14.73
2022-09-26T07:55:31.482Z,15.27
2022-09-26T07:56:31.453Z,15.17
2022-09-26T07:57:31.466Z,15.11
2022-09-26T07:58:31.441Z,14.73
2022-09-26T07:59:31.415Z,14.59
2022-09-26T08:00:31.417Z,14.52
2022-09-26T08:01:31.479Z,14.92
2022-09-26T08:02:31.532Z,16.09
2022-09-26T08:03:31.443Z,16.49
2022-09-26T08:04:31.400Z,16.09
2022-09-26T08:05:31.443Z,16.67
2022-09-26T08:06:31.370Z,16.98
2022-09-26T08:07:31.466Z,15.99
2022-09-26T08:08:31.365Z,16.36
2022-09-26T08:09:31.458Z,17.04
2022-09-26T08:10:31.342Z,17.25
2022-09-26T08:11:31.396Z,16.76
2022-09-26T08:12:31.318Z,16.33
2022-09-26T08:13:31.312Z,15.81
2022-09-26T08:14:31.339Z,15.04
2022-09-26T08:15:31.293Z,15.93
2022-09-26T08:16:31.339Z,16.10
2022-09-26T08:17:31.326Z,16.08
2022-09-26T08:18:31.272Z,15.77
2022-09-26T08:19:31.284Z,14.86
2022-09-26T08:20:32.313Z,15.14
2022-09-26T08:21:31.261Z,14.85
2022-09-26T08:22:31.237Z,14.31
2022-09-26T08:23:31.238Z,14.01
2022-09-26T08:24:31.234Z,13.54
2022-09-26T08:25:31.245Z,13.73
2022-09-26T08:26:31.200Z,13.97
2022-09-26T08:27:31.203Z,14.69
2022-09-26T08:28:31.183Z,15.25
2022-09-26T08:29:31.188Z,16.13
2022-09-26T08:30:31.169Z,16.84
2022-09-26T08:31:31.296Z,16.82
2022-09-26T08:32:31.169Z,16.61
2022-09-26T08:33:31.197Z,16.87
2022-09-26T08:34:31.145Z,16.90
2022-09-26T08:35:31.125Z,17.12
2022-09-26T08:36:31.120Z,17.30
2022-09-26T08:37:31.213Z,17.41
2022-09-26T08:38:31.122Z,17.32
2022-09-26T08:39:33.403Z,17.57
2022-09-26T08:40:31.175Z,17.83
2022-09-26T08:41:31.091Z,17.86
2022-09-26T08:42:31.078Z,18.23
2022-09-26T08:43:31.119Z,17.73
2022-09-26T08:44:31.052Z,17.28
2022-09-26T08:45:31.050Z,17.17
2022-09-26T08:46:31.096Z,17.24
2022-09-26T08:47:31.071Z,16.82
2022-09-26T08:48:31.031Z,17.01
2022-09-26T08:49:31.044Z,17.56
2022-09-26T08:50:31.020Z,18.08
2022-09-26T08:51:31.008Z,18.17
2022-09-26T08:52:30.986Z,17.96
2022-09-26T08:53:31.008Z,17.27
2022-09-26T08:54:31.016Z,16.62
2022-09-26T08:55:30.992Z,16.09
2022-09-26T08:56:30.963Z,15.33
2022-09-26T08:57:30.975Z,15.22
2022-09-26T08:58:30.955Z,14.83
2022-09-26T08:59:31.000Z,15.01
2022-09-26T09:00:30.957Z,14.46
2022-09-26T09:01:31.014Z,14.03
2022-09-26T09:02:30.980Z,13.93
2022-09-26T09:03:30.911Z,13.63
2022-09-26T09:04:30.900Z,13.51
2022-09-26T09:05:30.915Z,13.58
2022-09-26T09:06:30.902Z,15.12
2022-09-26T09:07:30.974Z,14.92
2022-09-26T09:08:30.859Z,14.83
2022-09-26T09:09:30.851Z,14.34
2022-09-26T09:10:30.845Z,14.27
2022-09-26T09:11:30.872Z,14.74
2022-09-26T09:12:32.387Z,15.93
2022-09-26T09:13:30.830Z,16.80
2022-09-26T09:14:30.815Z,17.69
2022-09-26T09:15:30.805Z,18.03
2022-09-26T09:16:30.874Z,17.79
2022-09-26T09:17:30.841Z,16.98
2022-09-26T09:18:30.809Z,16.40
2022-09-26T09:19:30.782Z,16.92
2022-09-26T09:20:30.773Z,16.77
2022-09-26T09:21:30.969Z,16.62
2022-09-26T09:22:30.761Z,16.72
2022-09-26T09:23:30.768Z,17.32
2022-09-26T09:24:30.761Z,17.93
2022-09-26T09:25:30.743Z,18.60
2022-09-26T09:28:31.740Z,18.96
2022-09-26T09:29:30.709Z,18.58
2022-09-26T09:30:30.720Z,18.33
2022-09-26T09:31:30.804Z,17.78
2022-09-26T09:32:30.678Z,17.63
2022-09-26T09:33:30.668Z,18.15
2022-09-26T09:34:30.671Z,18.18
2022-09-26T09:35:30.776Z,17.96
2022-09-26T09:36:30.665Z,18.36
2022-09-26T09:37:30.641Z,19.00
2022-09-26T09:38:30.619Z,18.74
2022-09-26T09:39:30.618Z,19.00
2022-09-26T09:40:30.651Z,19.01
2022-09-26T09:41:30.662Z,18.33
2022-09-26T09:42:30.586Z,18.64
2022-09-26T09:43:30.570Z,18.98
2022-09-26T09:44:30.716Z,18.81
2022-09-26T09:45:30.564Z,17.86
2022-09-26T09:46:30.616Z,17.59
2022-09-26T09:47:30.572Z,18.06
2022-09-26T09:48:30.537Z,18.79
2022-09-26T09:49:30.563Z,18.08
2022-09-26T09:50:30.523Z,17.59
2022-09-26T09:51:33.191Z,17.86
2022-09-26T09:52:31.560Z,18.41
2022-09-26T09:53:30.498Z,18.58
2022-09-26T09:54:30.477Z,18.43
2022-09-26T09:55:30.481Z,18.86
2022-09-26T09:56:30.491Z,19.09
2022-09-26T09:57:30.469Z,18.08
2022-09-26T09:58:30.474Z,17.87
2022-09-26T09:59:30.457Z,18.52
2022-09-26T10:00:30.454Z,19.13
2022-09-26T10:01:30.438Z,19.34
2022-09-26T10:02:30.525Z,19.44
2022-09-26T10:03:30.420Z,18.97
2022-09-26T10:04:30.406Z,18.36
2022-09-26T10:05:30.466Z,17.68
2022-09-26T10:06:44.272Z,17.86
2022-09-26T10:07:31.517Z,18.38
2022-09-26T10:08:30.374Z,18.60
2022-09-26T10:09:39.353Z,19.26
2022-09-26T10:10:31.400Z,19.96
2022-09-26T10:11:30.368Z,19.77
2022-09-26T10:12:30.359Z,19.87
2022-09-26T10:13:30.376Z,18.93
2022-09-26T10:14:30.394Z,19.23
2022-09-26T10:15:30.353Z,19.04
2022-09-26T10:16:30.386Z,18.58
2022-09-26T10:17:30.318Z,18.46
2022-09-26T10:18:30.311Z,17.93
2022-09-26T10:19:30.313Z,16.92
2022-09-26T10:20:30.283Z,17.73
2022-09-26T10:21:30.303Z,18.41
2022-09-26T10:22:30.275Z,18.70
2022-09-26T10:23:30.335Z,18.33
2022-09-26T10:24:30.252Z,18.75
2022-09-26T10:25:30.249Z,18.03
2022-09-26T10:26:31.531Z,17.38
2022-09-26T10:27:30.253Z,17.84
2022-09-26T10:28:30.244Z,18.28
2022-09-26T10:29:30.229Z,18.94
2022-09-26T10:30:30.234Z,19.08
2022-09-26T10:31:30.280Z,18.27
2022-09-26T10:32:30.221Z,17.81
2022-09-26T10:33:30.182Z,18.63
2022-09-26T10:34:30.180Z,18.30
2022-09-26T10:35:30.209Z,17.35
2022-09-26T10:36:30.155Z,17.34
2022-09-26T10:37:30.156Z,17.79
2022-09-26T10:38:30.169Z,18.09
2022-09-26T10:39:30.136Z,18.83
2022-09-26T10:40:30.190Z,19.07
2022-09-26T10:41:30.143Z,19.23
2022-09-26T10:42:32.472Z,18.51
2022-09-26T10:43:30.101Z,17.97
2022-09-26T10:44:30.284Z,17.68
2022-09-26T10:45:30.096Z,18.11
2022-09-26T10:46:30.144Z,18.78
2022-09-26T10:47:30.076Z,18.41
2022-09-26T10:48:30.069Z,17.79
2022-09-26T10:49:30.121Z,17.83
2022-09-26T10:50:30.055Z,16.74
2022-09-26T10:51:30.049Z,17.04
2022-09-26T10:52:30.044Z,16.97
2022-09-26T10:53:30.042Z,18.09
2022-09-26T10:54:30.008Z,18.36
2022-09-26T10:55:30.056Z,17.31
2022-09-26T10:56:30.003Z,16.59
2022-09-26T10:57:30.700Z,16.24
2022-09-26T10:58:30.161Z,16.58
2022-09-26T10:59:30.042Z,17.06
2022-09-26T11:00:29.960Z,18.09
2022-09-26T11:01:30.042Z,18.01
2022-09-26T11:02:29.953Z,17.50
2022-09-26T11:03:29.947Z,17.12
2022-09-26T11:04:29.952Z,16.61
2022-09-26T11:05:29.932Z,16.36
2022-09-26T11:06:29.940Z,16.02
2022-09-26T11:07:29.909Z,17.34
2022-09-26T11:08:29.906Z,17.07
2022-09-26T11:09:29.897Z,16.70
2022-09-26T11:10:29.910Z,16.61
2022-09-26T11:11:29.981Z,16.14
2022-09-26T11:12:29.872Z,16.06
2022-09-26T11:13:29.858Z,15.96
2022-09-26T11:14:29.879Z,16.16
2022-09-26T11:15:29.959Z,16.51
2022-09-26T11:16:33.654Z,16.90
2022-09-26T11:17:30.831Z,17.07
2022-09-26T11:18:29.831Z,17.69
2022-09-26T11:19:29.802Z,18.12
2022-09-26T11:20:37.311Z,17.86
2022-09-26T11:21:29.847Z,17.12
2022-09-26T11:22:29.815Z,16.76
2022-09-26T11:23:29.783Z,17.02
2022-09-26T11:25:58.122Z,16.74
2022-09-26T11:26:56.792Z,16.70
2022-09-26T11:27:56.811Z,16.43
2022-09-26T11:30:23.796Z,15.80
2022-09-26T11:31:23.841Z,15.66
2022-09-26T11:32:23.795Z,15.93
2022-09-26T11:33:44.800Z,15.78
2022-09-26T11:34:23.775Z,15.77
2022-09-26T11:35:23.766Z,15.65
2022-09-26T11:36:23.767Z,15.47
2022-09-26T11:37:24.027Z,15.36
2022-09-26T11:38:23.743Z,15.20
2022-09-26T11:39:23.739Z,15.76
2022-09-26T11:40:23.746Z,15.98
2022-09-26T11:41:23.726Z,16.46
2022-09-26T11:42:23.828Z,16.64
2022-09-26T11:43:23.724Z,16.08
2022-09-26T11:44:23.686Z,15.84
2022-09-26T11:45:23.693Z,15.78
2022-09-26T11:46:23.761Z,15.36
2022-09-26T11:47:23.677Z,15.43
2022-09-26T11:48:23.708Z,15.40
2022-09-26T11:49:23.659Z,15.27
2022-09-26T11:50:23.683Z,15.65
2022-09-26T11:51:23.645Z,15.98
2022-09-26T11:52:23.658Z,16.54
2022-09-26T11:53:23.664Z,16.67
2022-09-26T11:54:23.607Z,16.64
2022-09-26T11:55:23.609Z,16.82
2022-09-26T11:56:23.598Z,17.24
2022-09-26T11:57:23.590Z,16.77
2022-09-26T11:58:23.597Z,16.36
2022-09-26T11:59:23.603Z,16.43
2022-09-26T12:00:23.572Z,16.18
2022-09-26T12:01:23.575Z,16.25
2022-09-26T12:02:23.777Z,16.61
2022-09-26T12:03:23.693Z,17.16
2022-09-26T12:04:23.566Z,17.41
2022-09-26T12:05:26.805Z,17.04
2022-09-26T12:06:23.532Z,16.72
2022-09-26T12:07:23.538Z,16.17
2022-09-26T12:08:23.498Z,15.88
2022-09-26T12:09:23.497Z,15.78
2022-09-26T12:10:23.536Z,15.69
2022-09-26T12:11:23.487Z,15.85
2022-09-26T12:12:23.486Z,16.16
2022-09-26T12:13:23.533Z,16.02
2022-09-26T12:14:23.471Z,15.66
2022-09-26T12:15:23.452Z,15.77
2022-09-26T12:16:23.498Z,15.66
2022-09-26T12:17:23.446Z,15.47
2022-09-26T12:18:23.433Z,15.23
2022-09-26T12:19:23.455Z,15.15
2022-09-26T12:20:23.440Z,15.01
2022-09-26T12:21:23.416Z,14.95
2022-09-26T12:22:23.404Z,15.01
2022-09-26T12:23:23.389Z,14.97
2022-09-26T12:24:23.375Z,14.89
2022-09-26T12:25:23.368Z,14.92
2022-09-26T12:26:23.384Z,14.77
2022-09-26T12:27:23.351Z,14.61
2022-09-26T12:28:23.358Z,14.61
2022-09-26T12:29:23.336Z,14.93
2022-09-26T12:30:23.332Z,15.19
2022-09-26T12:31:23.395Z,15.20
2022-09-26T12:32:23.326Z,15.25
2022-09-26T12:33:23.340Z,15.05
2022-09-26T12:34:23.294Z,14.85
2022-09-26T12:35:23.290Z,14.87
2022-09-26T12:36:23.272Z,14.85
2022-09-26T12:37:23.348Z,14.70
2022-09-26T12:38:23.261Z,14.64
2022-09-26T12:39:23.305Z,14.53
2022-09-26T12:40:23.294Z,14.38
2022-09-26T12:41:23.319Z,14.33
2022-09-26T12:42:23.258Z,14.27
2022-09-26T12:43:23.225Z,14.27
2022-09-26T12:44:23.211Z,14.11
2022-09-26T12:45:23.214Z,14.08
2022-09-26T12:46:23.239Z,14.05
2022-09-26T12:47:23.197Z,14.01
2022-09-26T12:48:23.214Z,13.94
2022-09-26T12:49:23.198Z,14.04
2022-09-26T12:50:23.229Z,14.03
2022-09-26T12:51:23.180Z,14.15
2022-09-26T12:52:27.113Z,14.19
2022-09-26T12:53:23.154Z,14.27
2022-09-26T12:54:23.156Z,14.26
2022-09-26T12:55:23.142Z,14.28
2022-09-26T12:56:23.119Z,14.33
2022-09-26T12:57:23.098Z,14.34
2022-09-26T12:58:23.103Z,14.36
2022-09-26T12:59:23.108Z,14.41
2022-09-26T13:00:23.104Z,14.51
2022-09-26T13:01:23.147Z,14.67
2022-09-26T13:02:23.092Z,14.69
2022-09-26T13:03:23.050Z,14.95
2022-09-26T13:04:23.053Z,15.12
2022-09-26T13:05:23.064Z,15.12
2022-09-26T13:06:23.022Z,15.29
2022-09-26T13:07:23.017Z,15.35
2022-09-26T13:08:23.018Z,15.40
2022-09-26T13:09:23.007Z,15.48
2022-09-26T13:10:23.011Z,15.66
2022-09-26T13:11:23.073Z,15.72
2022-09-26T13:12:22.992Z,15.73
2022-09-26T13:13:22.967Z,15.76
2022-09-26T13:14:23.034Z,15.62